createdAt,value
2023-12-11T00:00:07.963Z,98776.02
2023-12-11T00:05:12.894Z,98768.65
2023-12-11T00:10:17.778Z,98764.11
2023-12-11T00:15:22.592Z,98759.05
2023-12-11T00:20:26.022Z,98762.41
2023-12-11T00:25:30.823Z,98766.66
2023-12-11T00:30:35.317Z,98761.98
2023-12-11T00:35:39.642Z,98759.02
2023-12-11T00:40:44.797Z,98759.58
2023-12-11T00:45:49.961Z,98762.09
2023-12-11T00:50:54.908Z,98748.33
2023-12-11T00:56:00.044Z,98735.83
2023-12-11T01:01:04.095Z,98726.72
2023-12-11T01:06:09.098Z,98727.02
2023-12-11T01:11:13.307Z,98723.33
2023-12-11T01:16:19.022Z,98724.22
2023-12-11T01:21:23.969Z,98721.59
2023-12-11T01:26:28.592Z,98722.59
2023-12-11T01:31:33.876Z,98699.01
2023-12-11T01:36:38.955Z,98685.98
2023-12-11T01:41:43.264Z,98672.98
2023-12-11T01:46:48.665Z,98669.54
2023-12-11T01:51:54.401Z,98673.27
2023-12-11T01:56:59.453Z,98678.08
2023-12-11T02:02:04.747Z,98679.16
2023-12-11T02:07:09.163Z,98678.30
2023-12-11T02:12:14.544Z,98672.12
2023-12-11T02:17:19.098Z,98670.15
2023-12-11T02:22:23.774Z,98669.16
2023-12-11T02:27:29.153Z,98654.48
2023-12-11T02:32:34.008Z,98641.75
2023-12-11T02:37:39.218Z,98622.30
2023-12-11T02:42:51.864Z,98600.98
2023-12-11T02:48:04.974Z,98584.27
2023-12-11T02:53:09.839Z,98568.14
2023-12-11T02:58:14.779Z,98571.70
2023-12-11T03:03:19.093Z,98568.27
2023-12-11T03:08:24.311Z,98564.59
2023-12-11T03:13:28.146Z,98554.38
2023-12-11T03:18:33.579Z,98553.69
2023-12-11T03:23:39.489Z,98548.48
2023-12-11T03:28:44.257Z,98548.72
2023-12-11T03:33:49.821Z,98550.48
2023-12-11T03:38:54.190Z,98548.21
2023-12-11T03:43:58.872Z,98537.69
2023-12-11T03:49:04.661Z,98555.16
2023-12-11T03:54:09.003Z,98561.35
2023-12-11T03:59:15.372Z,98560.16
2023-12-11T04:04:20.029Z,98559.27
2023-12-11T04:09:25.282Z,98551.17
2023-12-11T04:14:30.272Z,98545.35
2023-12-11T04:19:35.070Z,98544.38
2023-12-11T04:24:39.698Z,98536.70
2023-12-11T04:29:44.464Z,98532.42
2023-12-11T04:34:48.881Z,98533.98
2023-12-11T04:39:54.657Z,98532.45
2023-12-11T04:44:59.513Z,98517.10
2023-12-11T04:50:04.362Z,98510.45
2023-12-11T04:55:09.164Z,98506.06
2023-12-11T05:00:16.985Z,98502.92
2023-12-11T05:05:22.111Z,98492.11
2023-12-11T05:10:26.160Z,98476.00
2023-12-11T05:15:30.551Z,98466.06
2023-12-11T05:20:34.910Z,98457.80
2023-12-11T05:25:39.677Z,98450.05
2023-12-11T05:30:44.705Z,98441.92
2023-12-11T05:35:50.129Z,98448.61
2023-12-11T05:40:54.830Z,98441.97
2023-12-11T05:45:59.081Z,98437.69
2023-12-11T05:51:02.722Z,98435.58
2023-12-11T05:56:07.786Z,98425.26
2023-12-11T06:01:12.557Z,98422.03
2023-12-11T06:06:17.863Z,98416.23
2023-12-11T06:11:22.600Z,98407.45
2023-12-11T06:16:28.452Z,98389.31
2023-12-11T06:21:33.406Z,98386.20
2023-12-11T06:26:38.415Z,98386.58
2023-12-11T06:31:42.571Z,98380.17
2023-12-11T06:36:47.813Z,98376.54
2023-12-11T06:41:52.059Z,98364.34
2023-12-11T06:46:57.091Z,98356.39
2023-12-11T06:52:01.710Z,98351.36
2023-12-11T06:57:06.605Z,98349.56
2023-12-11T07:02:11.532Z,98346.33
2023-12-11T07:07:16.042Z,98349.90
2023-12-11T07:12:20.034Z,98337.48
2023-12-11T07:17:24.547Z,98336.86
2023-12-11T07:22:29.835Z,98335.02
2023-12-11T07:27:35.979Z,98336.14
2023-12-11T07:32:41.168Z,98341.79
2023-12-11T07:37:46.452Z,98330.11
2023-12-11T07:42:51.744Z,98321.02
2023-12-11T07:47:56.693Z,98323.44
2023-12-11T07:53:01.358Z,98305.73
2023-12-11T07:58:06.089Z,98312.67
2023-12-11T08:03:10.799Z,98311.26
2023-12-11T08:08:15.204Z,98308.55
2023-12-11T08:13:20.497Z,98310.05
2023-12-11T08:18:26.084Z,98314.95
2023-12-11T08:23:31.026Z,98306.80
2023-12-11T08:28:36.227Z,98303.21
2023-12-11T08:33:41.443Z,98306.70
2023-12-11T08:38:46.705Z,98305.66
2023-12-11T08:43:51.801Z,98305.20
2023-12-11T08:48:55.731Z,98313.85
2023-12-11T08:54:01.325Z,98315.25
2023-12-11T08:59:05.390Z,98314.05
2023-12-11T09:04:09.730Z,98318.67
2023-12-11T09:09:15.220Z,98320.27
2023-12-11T09:14:22.070Z,98322.38
2023-12-11T09:19:36.212Z,98317.77
2023-12-11T09:24:49.100Z,98312.42
2023-12-11T09:29:53.979Z,98309.89
2023-12-11T09:34:58.945Z,98312.50
2023-12-11T09:40:04.354Z,98307.08
2023-12-11T09:45:10.049Z,98301.26
2023-12-11T09:50:17.654Z,98303.52
2023-12-11T09:55:21.165Z,98299.46
2023-12-11T10:00:26.430Z,98288.61
2023-12-11T10:05:30.772Z,98285.80
2023-12-11T10:10:40.222Z,98280.70
2023-12-11T10:15:46.390Z,98276.52
2023-12-11T10:20:56.305Z,98277.52
2023-12-11T10:26:09.358Z,98272.98
2023-12-11T10:31:14.196Z,98267.29
2023-12-11T10:36:18.757Z,98263.13
2023-12-11T10:41:27.972Z,98262.29
2023-12-11T10:46:33.463Z,98263.41
2023-12-11T10:51:38.374Z,98259.52
2023-12-11T10:56:47.917Z,98258.74
2023-12-11T11:01:53.147Z,98257.04
2023-12-11T11:07:10.167Z,98254.77
2023-12-11T11:12:51.085Z,98255.34
2023-12-11T11:18:05.085Z,98252.88
2023-12-11T11:23:18.941Z,98246.48
2023-12-11T11:28:44.563Z,98250.39
2023-12-11T11:33:52.874Z,98244.52
2023-12-11T11:39:03.990Z,98242.86
2023-12-11T11:44:10.416Z,98233.40
2023-12-11T11:49:39.137Z,98232.35
2023-12-11T11:54:44.666Z,98228.83
2023-12-11T11:59:52.038Z,98225.51
2023-12-11T12:05:10.409Z,98216.52
2023-12-11T12:10:19.254Z,98212.08
2023-12-11T12:15:23.167Z,98203.95
2023-12-11T12:20:28.122Z,98209.88
2023-12-11T12:25:33.927Z,98199.82
2023-12-11T12:30:37.911Z,98202.45
2023-12-11T12:35:45.656Z,98203.13
2023-12-11T12:40:50.700Z,98207.00
2023-12-11T12:46:02.309Z,98208.84
2023-12-11T12:51:10.935Z,98207.34
2023-12-11T12:56:19.158Z,98203.32
2023-12-11T13:01:24.412Z,98207.20
2023-12-11T13:06:28.805Z,98206.06
2023-12-11T13:11:51.660Z,98213.56
2023-12-11T13:16:57.418Z,98212.39
2023-12-11T13:22:02.222Z,98213.67
2023-12-11T13:27:07.867Z,98213.96
2023-12-11T13:32:16.927Z,98212.10
2023-12-11T13:37:21.975Z,98206.95
2023-12-11T13:42:26.502Z,98204.36
2023-12-11T13:47:33.016Z,98210.48
2023-12-11T13:52:39.287Z,98210.91
2023-12-11T13:57:45.095Z,98214.40
2023-12-11T14:03:00.880Z,98216.58
2023-12-11T14:08:08.774Z,98219.02
2023-12-11T14:13:17.124Z,98222.00
2023-12-11T14:18:24.295Z,98229.32
2023-12-11T14:23:29.863Z,98229.40
2023-12-11T14:28:35.691Z,98222.98
2023-12-11T14:33:41.472Z,98231.80
2023-12-11T14:38:48.531Z,98237.61
2023-12-11T14:43:54.614Z,98233.60
2023-12-11T14:49:02.513Z,98231.49
2023-12-11T14:54:10.540Z,98237.09
2023-12-11T14:59:15.863Z,98238.92
2023-12-11T15:04:25.635Z,98245.77
2023-12-11T15:09:39.302Z,98242.65
2023-12-11T15:14:43.235Z,98239.66
2023-12-11T15:19:48.169Z,98240.53
2023-12-11T15:24:52.435Z,98242.17
2023-12-11T15:29:57.107Z,98241.20
2023-12-11T15:35:02.422Z,98243.77
2023-12-11T15:40:09.206Z,98240.79
2023-12-11T15:45:14.039Z,98239.69
2023-12-11T15:50:19.286Z,98237.77
2023-12-11T15:55:23.222Z,98233.67
2023-12-11T16:00:28.811Z,98232.27
2023-12-11T16:05:33.809Z,98234.09
2023-12-11T16:10:42.997Z,98239.92
2023-12-11T16:15:48.285Z,98243.51
2023-12-11T16:20:53.039Z,98241.63
2023-12-11T16:26:03.064Z,98242.09
2023-12-11T16:31:09.955Z,98245.64
2023-12-11T16:36:15.528Z,98243.05
2023-12-11T16:41:29.997Z,98233.92
2023-12-11T16:46:34.720Z,98232.78
2023-12-11T16:51:40.103Z,98229.32
2023-12-11T16:56:45.611Z,98226.48
2023-12-11T17:01:50.751Z,98223.13
2023-12-11T17:06:55.368Z,98215.39
2023-12-11T17:12:00.254Z,98215.30
2023-12-11T17:17:08.120Z,98211.80
2023-12-11T17:22:13.640Z,98212.75
2023-12-11T17:27:17.675Z,98209.66
2023-12-11T17:32:23.170Z,98210.20
2023-12-11T17:37:28.009Z,98206.86
2023-12-11T17:42:32.399Z,98201.28
2023-12-11T17:47:36.940Z,98203.64
2023-12-11T17:52:43.089Z,98202.20
2023-12-11T17:57:47.262Z,98203.73
2023-12-11T18:02:53.870Z,98206.27
2023-12-11T18:07:58.076Z,98207.87
2023-12-11T18:13:02.731Z,98199.86
2023-12-11T18:18:06.872Z,98193.16
2023-12-11T18:23:10.819Z,98190.50
2023-12-11T18:28:16.832Z,98189.89
2023-12-11T18:33:20.798Z,98189.86
2023-12-11T18:38:25.125Z,98184.28
2023-12-11T18:43:29.657Z,98185.18
2023-12-11T18:48:34.115Z,98186.70
2023-12-11T18:53:39.711Z,98181.93
2023-12-11T18:58:45.332Z,98178.25
2023-12-11T19:03:51.684Z,98180.09
2023-12-11T19:08:57.696Z,98178.69
2023-12-11T19:14:03.110Z,98181.33
2023-12-11T19:19:08.166Z,98179.98
2023-12-11T19:24:13.489Z,98178.80
2023-12-11T19:29:19.670Z,98180.98
2023-12-11T19:34:23.861Z,98179.89
2023-12-11T19:39:29.435Z,98177.98
2023-12-11T19:44:36.339Z,98180.39
2023-12-11T19:49:41.831Z,98175.80
2023-12-11T19:54:47.084Z,98175.33
2023-12-11T19:59:51.934Z,98176.94
2023-12-11T20:04:55.874Z,98180.90
2023-12-11T20:10:02.899Z,98179.13
2023-12-11T20:15:07.463Z,98178.92
2023-12-11T20:20:11.666Z,98177.17
2023-12-11T20:25:15.409Z,98179.73
2023-12-11T20:30:20.963Z,98177.23
2023-12-11T20:35:24.373Z,98179.81
2023-12-11T20:40:27.897Z,98178.75
2023-12-11T20:45:31.480Z,98180.95
2023-12-11T20:50:36.897Z,98179.12
2023-12-11T20:55:46.836Z,98187.86
2023-12-11T21:00:50.507Z,98187.17
2023-12-11T21:05:54.126Z,98185.20
2023-12-11T21:10:59.219Z,98189.33
2023-12-11T21:16:05.776Z,98186.86
2023-12-11T21:21:10.907Z,98193.73
2023-12-11T21:26:21.498Z,98184.89
2023-12-11T21:31:34.134Z,98186.38
2023-12-11T21:36:42.650Z,98190.24
2023-12-11T21:41:47.559Z,98185.52
2023-12-11T21:46:52.690Z,98198.13
2023-12-11T21:51:59.849Z,98201.01
2023-12-11T21:57:04.531Z,98205.84
2023-12-11T22:02:09.175Z,98203.16
2023-12-11T22:07:17.414Z,98204.63
2023-12-11T22:12:24.556Z,98209.70
2023-12-11T22:17:30.313Z,98220.11
2023-12-11T22:22:35.832Z,98220.52
2023-12-11T22:27:42.002Z,98229.65
2023-12-11T22:32:46.069Z,98234.17
2023-12-11T22:37:51.009Z,98236.73
2023-12-11T22:42:54.797Z,98237.98
2023-12-11T22:47:59.335Z,98235.08
2023-12-11T22:53:03.235Z,98237.33
2023-12-11T22:58:14.004Z,98239.39
2023-12-11T23:03:20.276Z,98241.94
2023-12-11T23:08:25.870Z,98241.52
2023-12-11T23:13:31.951Z,98239.02
2023-12-11T23:18:35.968Z,98242.13
2023-12-11T23:23:40.596Z,98247.60
2023-12-11T23:28:45.050Z,98247.36
2023-12-11T23:33:49.401Z,98249.77
2023-12-11T23:38:53.831Z,98253.52
2023-12-11T23:43:58.395Z,98258.06
2023-12-11T23:49:03.231Z,98261.02
2023-12-11T23:54:08.057Z,98260.52
2023-12-11T23:59:12.239Z,98265.42
